Terminal Aerodrome Forecast
Issued by NWS Northern Indiana

Home | Current Version | Previous Version | Text Only | Print | Product List | Glossary On
Versions: 1 2 3 4 5 6 7 8 9 10 11 12 13 14 15 16 17 18 19 20
000
FTUS43 KIWX 131500 AAA
TAFFWA
TAF AMD
KFWA 131537Z 1316/1412 30009KT P6SM SCT025 BKN040
     FM131800 34011KT P6SM BKN035
     FM140000 35003KT P6SM FEW035
     FM140600 00000KT 6SM BR SKC=

USA.gov is the U.S. government's official web portal to all federal, state and local government web resources and services.